This is the latest recevied weather packets stored in our database for station/object EA5GTE-12. If no packets are shown the sender has not sent any weather packets the latest 10 day(s).
| Time | Temp. | Humidity | Pressure | Rain* | Wind** | Luminosity | Snow |
|---|---|---|---|---|---|---|---|
| 1777280814 | 21.67° C | 16% | 940.5 hPa | - | - | - | - |
| 1777279914 | 22.22° C | 15% | 940.5 hPa | - | - | - | - |
| 1777279014 | 22.78° C | 14% | 940.5 hPa | - | - | - | - |
| 1777278114 | 21.67° C | 15% | 940.6 hPa | - | - | - | - |
| 1777277214 | 25.56° C | 15% | 940.7 hPa | - | - | - | - |
| 1777276314 | 22.22° C | 19% | 941 hPa | - | - | - | - |
| 1777275414 | 25° C | 19% | 941 hPa | - | - | - | - |
| 1777274514 | 22.22° C | 28% | 941 hPa | - | - | - | - |
| 1777272715 | 20.56° C | 33% | 941.2 hPa | - | - | - | - |
| 1777271815 | 18.89° C | 36% | 941.2 hPa | - | - | - | - |
| 1777270915 | 16.11° C | 41% | 941.3 hPa | - | - | - | - |
| 1777270014 | 13.89° C | 42% | 941.1 hPa | - | - | - | - |
| 1777269114 | 11.67° C | 48% | 941 hPa | - | - | - | - |
| 1777268214 | 7.78° C | 61% | 941 hPa | - | - | - | - |
| 1777267314 | 4.44° C | 82% | 941.1 hPa | - | - | - | - |
| 1777266414 | 3.89° C | 66% | 941.1 hPa | - | - | - | - |
| 1777265514 | 4.44° C | 58% | 941 hPa | - | - | - | - |
| 1777264614 | 4.44° C | 57% | 940.9 hPa | - | - | - | - |
| 1777263714 | 5° C | 57% | 940.8 hPa | - | - | - | - |
| 1777262814 | 5° C | 57% | 941 hPa | - | - | - | - |
| 1777261914 | 4.44° C | 78% | 941 hPa | - | - | - | - |
| 1777261013 | 3.33° C | 92% | 941.1 hPa | - | - | - | - |
| 1777260113 | 3.89° C | 79% | 941.2 hPa | - | - | - | - |
| 1777259213 | 5.56° C | 54% | 941.2 hPa | - | - | - | - |
| 1777258313 | 5.56° C | 57% | 941.3 hPa | - | - | - | - |
* Rain since midnight (hover to see other rain measurements)
** Current wind speed in m/s (hover to see current wind gust speed)